sensor_id;sensor_type;location;lat;lon;timestamp;temperature;humidity
21246;DHT22;10781;50.928;4.440;2022-07-24T00:02:02;22.40;99.90
21246;DHT22;10781;50.928;4.440;2022-07-24T00:04:28;22.30;99.90
21246;DHT22;10781;50.928;4.440;2022-07-24T00:06:53;22.40;99.90
21246;DHT22;10781;50.928;4.440;2022-07-24T00:09:19;22.40;99.90
21246;DHT22;10781;50.928;4.440;2022-07-24T00:11:45;22.50;99.90
21246;DHT22;10781;50.928;4.440;2022-07-24T00:14:11;22.60;99.90
21246;DHT22;10781;50.928;4.440;2022-07-24T00:16:37;22.70;99.90
21246;DHT22;10781;50.928;4.440;2022-07-24T00:19:02;22.60;99.90
21246;DHT22;10781;50.928;4.440;2022-07-24T00:21:28;22.50;99.90
21246;DHT22;10781;50.928;4.440;2022-07-24T00:23:54;22.40;99.90
21246;DHT22;10781;50.928;4.440;2022-07-24T00:26:19;22.40;99.90
21246;DHT22;10781;50.928;4.440;2022-07-24T00:28:45;22.50;99.90
21246;DHT22;10781;50.928;4.440;2022-07-24T00:31:11;22.50;99.90
21246;DHT22;10781;50.928;4.440;2022-07-24T00:33:36;22.50;99.90
21246;DHT22;10781;50.928;4.440;2022-07-24T00:36:02;22.60;99.90
21246;DHT22;10781;50.928;4.440;2022-07-24T00:38:28;22.60;99.90
21246;DHT22;10781;50.928;4.440;2022-07-24T00:40:53;22.50;99.90
21246;DHT22;10781;50.928;4.440;2022-07-24T00:43:19;22.20;99.90
21246;DHT22;10781;50.928;4.440;2022-07-24T00:45:46;22.10;99.90
21246;DHT22;10781;50.928;4.440;2022-07-24T00:48:12;22.10;99.90
21246;DHT22;10781;50.928;4.440;2022-07-24T00:50:38;22.10;99.90
21246;DHT22;10781;50.928;4.440;2022-07-24T00:53:04;22.10;99.90
21246;DHT22;10781;50.928;4.440;2022-07-24T00:55:30;22.00;99.90
21246;DHT22;10781;50.928;4.440;2022-07-24T00:57:56;22.00;99.90
21246;DHT22;10781;50.928;4.440;2022-07-24T01:00:22;22.10;99.90
21246;DHT22;10781;50.928;4.440;2022-07-24T01:02:49;22.20;99.90
21246;DHT22;10781;50.928;4.440;2022-07-24T01:05:15;22.30;99.90
21246;DHT22;10781;50.928;4.440;2022-07-24T01:07:41;22.30;99.90
21246;DHT22;10781;50.928;4.440;2022-07-24T01:10:08;22.30;99.90
21246;DHT22;10781;50.928;4.440;2022-07-24T01:12:37;22.10;99.90
21246;DHT22;10781;50.928;4.440;2022-07-24T01:15:05;22.10;99.90
21246;DHT22;10781;50.928;4.440;2022-07-24T01:17:31;22.10;99.90
21246;DHT22;10781;50.928;4.440;2022-07-24T01:19:58;22.10;99.90
21246;DHT22;10781;50.928;4.440;2022-07-24T01:22:25;21.90;99.90
21246;DHT22;10781;50.928;4.440;2022-07-24T01:24:51;21.80;99.90
21246;DHT22;10781;50.928;4.440;2022-07-24T01:27:17;21.90;99.90
21246;DHT22;10781;50.928;4.440;2022-07-24T01:29:43;21.90;99.90
21246;DHT22;10781;50.928;4.440;2022-07-24T01:32:09;21.90;99.90
21246;DHT22;10781;50.928;4.440;2022-07-24T01:34:35;21.90;99.90
21246;DHT22;10781;50.928;4.440;2022-07-24T01:37:01;21.90;99.90
21246;DHT22;10781;50.928;4.440;2022-07-24T01:39:27;21.90;99.90
21246;DHT22;10781;50.928;4.440;2022-07-24T01:41:52;21.90;99.90
21246;DHT22;10781;50.928;4.440;2022-07-24T01:44:18;21.80;99.90
21246;DHT22;10781;50.928;4.440;2022-07-24T01:46:44;21.90;99.90
21246;DHT22;10781;50.928;4.440;2022-07-24T01:49:10;22.00;99.90
21246;DHT22;10781;50.928;4.440;2022-07-24T01:51:35;22.00;99.90
21246;DHT22;10781;50.928;4.440;2022-07-24T01:54:01;22.10;99.90
21246;DHT22;10781;50.928;4.440;2022-07-24T01:56:32;22.10;99.90
21246;DHT22;10781;50.928;4.440;2022-07-24T01:58:57;22.00;99.90
21246;DHT22;10781;50.928;4.440;2022-07-24T02:01:24;22.00;99.90
21246;DHT22;10781;50.928;4.440;2022-07-24T02:03:50;21.90;99.90
21246;DHT22;10781;50.928;4.440;2022-07-24T02:06:16;21.80;99.90
21246;DHT22;10781;50.928;4.440;2022-07-24T02:08:41;21.90;99.90
21246;DHT22;10781;50.928;4.440;2022-07-24T02:11:07;21.90;99.90
21246;DHT22;10781;50.928;4.440;2022-07-24T02:13:33;21.90;99.90
21246;DHT22;10781;50.928;4.440;2022-07-24T02:15:58;21.80;99.90
21246;DHT22;10781;50.928;4.440;2022-07-24T02:18:24;21.70;99.90
21246;DHT22;10781;50.928;4.440;2022-07-24T02:20:50;21.50;99.90
21246;DHT22;10781;50.928;4.440;2022-07-24T02:23:16;21.30;99.90
21246;DHT22;10781;50.928;4.440;2022-07-24T02:25:47;21.40;99.90
21246;DHT22;10781;50.928;4.440;2022-07-24T02:28:13;21.50;99.90
21246;DHT22;10781;50.928;4.440;2022-07-24T02:30:40;21.50;99.90
21246;DHT22;10781;50.928;4.440;2022-07-24T02:33:05;21.50;99.90
21246;DHT22;10781;50.928;4.440;2022-07-24T02:35:31;21.50;99.90
21246;DHT22;10781;50.928;4.440;2022-07-24T02:37:57;21.30;99.90
21246;DHT22;10781;50.928;4.440;2022-07-24T02:40:22;21.30;99.90
21246;DHT22;10781;50.928;4.440;2022-07-24T02:42:49;21.30;99.90
21246;DHT22;10781;50.928;4.440;2022-07-24T02:45:15;21.40;99.90
21246;DHT22;10781;50.928;4.440;2022-07-24T02:47:52;21.50;99.90
21246;DHT22;10781;50.928;4.440;2022-07-24T02:50:19;21.30;99.90
21246;DHT22;10781;50.928;4.440;2022-07-24T02:52:46;21.10;99.90
21246;DHT22;10781;50.928;4.440;2022-07-24T02:55:11;21.10;99.90
21246;DHT22;10781;50.928;4.440;2022-07-24T02:57:37;21.10;99.90
21246;DHT22;10781;50.928;4.440;2022-07-24T03:00:09;21.30;99.90
21246;DHT22;10781;50.928;4.440;2022-07-24T03:02:35;21.20;99.90
21246;DHT22;10781;50.928;4.440;2022-07-24T03:05:02;21.30;99.90
21246;DHT22;10781;50.928;4.440;2022-07-24T03:07:28;21.40;99.90
21246;DHT22;10781;50.928;4.440;2022-07-24T03:09:54;21.40;99.90
21246;DHT22;10781;50.928;4.440;2022-07-24T03:12:20;21.30;99.90
21246;DHT22;10781;50.928;4.440;2022-07-24T03:14:45;21.20;99.90
21246;DHT22;10781;50.928;4.440;2022-07-24T03:17:11;21.00;99.90
21246;DHT22;10781;50.928;4.440;2022-07-24T03:19:37;20.90;99.90
21246;DHT22;10781;50.928;4.440;2022-07-24T03:22:02;20.80;99.90
21246;DHT22;10781;50.928;4.440;2022-07-24T03:24:28;20.90;99.90
21246;DHT22;10781;50.928;4.440;2022-07-24T03:26:54;20.90;99.90
21246;DHT22;10781;50.928;4.440;2022-07-24T03:29:19;21.00;99.90
21246;DHT22;10781;50.928;4.440;2022-07-24T03:31:45;21.00;99.90
21246;DHT22;10781;50.928;4.440;2022-07-24T03:34:12;21.00;99.90
21246;DHT22;10781;50.928;4.440;2022-07-24T03:36:37;20.90;99.90
21246;DHT22;10781;50.928;4.440;2022-07-24T03:39:04;20.80;99.90
21246;DHT22;10781;50.928;4.440;2022-07-24T03:41:30;20.80;99.90
21246;DHT22;10781;50.928;4.440;2022-07-24T03:43:56;20.90;99.90
21246;DHT22;10781;50.928;4.440;2022-07-24T03:46:21;20.90;99.90
21246;DHT22;10781;50.928;4.440;2022-07-24T03:48:47;20.90;99.90
21246;DHT22;10781;50.928;4.440;2022-07-24T03:51:13;21.00;99.90
21246;DHT22;10781;50.928;4.440;2022-07-24T03:53:39;20.90;99.90
21246;DHT22;10781;50.928;4.440;2022-07-24T03:56:08;20.70;99.90
21246;DHT22;10781;50.928;4.440;2022-07-24T03:58:34;20.60;99.90
21246;DHT22;10781;50.928;4.440;2022-07-24T04:01:01;20.70;99.90
21246;DHT22;10781;50.928;4.440;2022-07-24T04:03:27;20.70;99.90
21246;DHT22;10781;50.928;4.440;2022-07-24T04:05:52;20.60;99.90
21246;DHT22;10781;50.928;4.440;2022-07-24T04:08:18;20.60;99.90
21246;DHT22;10781;50.928;4.440;2022-07-24T04:10:44;20.70;99.90
21246;DHT22;10781;50.928;4.440;2022-07-24T04:13:10;20.70;99.90
21246;DHT22;10781;50.928;4.440;2022-07-24T04:15:36;20.80;99.90
21246;DHT22;10781;50.928;4.440;2022-07-24T04:18:01;20.80;99.90
21246;DHT22;10781;50.928;4.440;2022-07-24T04:20:27;20.90;99.90
21246;DHT22;10781;50.928;4.440;2022-07-24T04:22:52;20.80;99.90
21246;DHT22;10781;50.928;4.440;2022-07-24T04:25:18;20.80;99.90
21246;DHT22;10781;50.928;4.440;2022-07-24T04:27:44;20.90;99.90
21246;DHT22;10781;50.928;4.440;2022-07-24T04:30:10;20.70;99.90
21246;DHT22;10781;50.928;4.440;2022-07-24T04:32:37;20.70;99.90
21246;DHT22;10781;50.928;4.440;2022-07-24T04:35:03;20.70;99.90
21246;DHT22;10781;50.928;4.440;2022-07-24T04:37:29;20.70;99.90
21246;DHT22;10781;50.928;4.440;2022-07-24T04:39:55;20.50;99.90
21246;DHT22;10781;50.928;4.440;2022-07-24T04:42:21;20.50;99.90
21246;DHT22;10781;50.928;4.440;2022-07-24T04:44:46;20.60;99.90
21246;DHT22;10781;50.928;4.440;2022-07-24T04:47:12;20.90;99.90
21246;DHT22;10781;50.928;4.440;2022-07-24T04:49:38;20.80;99.90
21246;DHT22;10781;50.928;4.440;2022-07-24T04:52:03;20.90;99.90
21246;DHT22;10781;50.928;4.440;2022-07-24T04:54:29;21.00;99.90
21246;DHT22;10781;50.928;4.440;2022-07-24T04:56:55;21.00;99.90
21246;DHT22;10781;50.928;4.440;2022-07-24T04:59:20;21.00;99.90
21246;DHT22;10781;50.928;4.440;2022-07-24T05:01:46;21.00;99.90
21246;DHT22;10781;50.928;4.440;2022-07-24T05:04:12;21.10;99.90
21246;DHT22;10781;50.928;4.440;2022-07-24T05:06:37;21.10;99.90
21246;DHT22;10781;50.928;4.440;2022-07-24T05:09:03;21.10;99.90
21246;DHT22;10781;50.928;4.440;2022-07-24T05:11:29;21.20;99.90
21246;DHT22;10781;50.928;4.440;2022-07-24T05:13:54;21.40;99.90
21246;DHT22;10781;50.928;4.440;2022-07-24T05:16:20;21.30;99.90
21246;DHT22;10781;50.928;4.440;2022-07-24T05:18:46;21.30;99.90
21246;DHT22;10781;50.928;4.440;2022-07-24T05:21:11;21.10;99.90
21246;DHT22;10781;50.928;4.440;2022-07-24T05:23:37;21.00;99.90
21246;DHT22;10781;50.928;4.440;2022-07-24T05:26:02;20.80;99.90
21246;DHT22;10781;50.928;4.440;2022-07-24T05:28:28;20.90;99.90
21246;DHT22;10781;50.928;4.440;2022-07-24T05:30:54;21.10;99.90
21246;DHT22;10781;50.928;4.440;2022-07-24T05:33:19;21.30;99.90
21246;DHT22;10781;50.928;4.440;2022-07-24T05:35:45;21.30;99.90
21246;DHT22;10781;50.928;4.440;2022-07-24T05:38:10;21.50;99.90
21246;DHT22;10781;50.928;4.440;2022-07-24T05:40:36;21.60;99.90
21246;DHT22;10781;50.928;4.440;2022-07-24T05:43:02;21.70;99.90
21246;DHT22;10781;50.928;4.440;2022-07-24T05:45:27;21.80;99.90
21246;DHT22;10781;50.928;4.440;2022-07-24T05:47:53;21.70;99.90
21246;DHT22;10781;50.928;4.440;2022-07-24T05:50:19;21.70;99.90
21246;DHT22;10781;50.928;4.440;2022-07-24T05:52:45;21.90;99.90
21246;DHT22;10781;50.928;4.440;2022-07-24T05:55:10;22.00;99.90
21246;DHT22;10781;50.928;4.440;2022-07-24T05:57:36;21.80;99.90
21246;DHT22;10781;50.928;4.440;2022-07-24T06:00:03;21.80;99.90
21246;DHT22;10781;50.928;4.440;2022-07-24T06:02:29;21.70;99.90
21246;DHT22;10781;50.928;4.440;2022-07-24T06:04:54;21.80;99.90
21246;DHT22;10781;50.928;4.440;2022-07-24T06:07:20;21.70;99.90
21246;DHT22;10781;50.928;4.440;2022-07-24T06:09:45;21.90;99.90
21246;DHT22;10781;50.928;4.440;2022-07-24T06:12:11;22.00;99.90
21246;DHT22;10781;50.928;4.440;2022-07-24T06:14:37;22.00;99.90
21246;DHT22;10781;50.928;4.440;2022-07-24T06:17:02;22.00;99.90
21246;DHT22;10781;50.928;4.440;2022-07-24T06:19:28;22.10;99.90
21246;DHT22;10781;50.928;4.440;2022-07-24T06:21:54;22.10;99.90
21246;DHT22;10781;50.928;4.440;2022-07-24T06:24:19;22.20;99.90
21246;DHT22;10781;50.928;4.440;2022-07-24T06:26:45;22.30;99.90
21246;DHT22;10781;50.928;4.440;2022-07-24T06:29:11;22.20;99.90
21246;DHT22;10781;50.928;4.440;2022-07-24T06:31:36;22.30;99.90
21246;DHT22;10781;50.928;4.440;2022-07-24T06:34:02;22.20;99.90
21246;DHT22;10781;50.928;4.440;2022-07-24T06:36:27;22.40;99.90
21246;DHT22;10781;50.928;4.440;2022-07-24T06:38:53;22.50;99.90
21246;DHT22;10781;50.928;4.440;2022-07-24T06:41:19;22.60;99.90
21246;DHT22;10781;50.928;4.440;2022-07-24T06:43:45;22.70;99.90
21246;DHT22;10781;50.928;4.440;2022-07-24T06:46:10;22.80;99.90
21246;DHT22;10781;50.928;4.440;2022-07-24T06:48:36;22.80;99.90
21246;DHT22;10781;50.928;4.440;2022-07-24T06:51:03;23.00;99.90
21246;DHT22;10781;50.928;4.440;2022-07-24T06:53:29;23.20;99.90
21246;DHT22;10781;50.928;4.440;2022-07-24T06:55:55;23.40;99.90
21246;DHT22;10781;50.928;4.440;2022-07-24T06:58:21;23.30;99.90
21246;DHT22;10781;50.928;4.440;2022-07-24T07:00:48;23.30;99.90
21246;DHT22;10781;50.928;4.440;2022-07-24T07:03:14;23.50;99.90
21246;DHT22;10781;50.928;4.440;2022-07-24T07:05:40;23.60;99.90
21246;DHT22;10781;50.928;4.440;2022-07-24T07:08:06;23.70;99.90
21246;DHT22;10781;50.928;4.440;2022-07-24T07:10:31;23.70;99.90
21246;DHT22;10781;50.928;4.440;2022-07-24T07:12:57;23.90;99.90
21246;DHT22;10781;50.928;4.440;2022-07-24T07:15:23;24.00;99.90
21246;DHT22;10781;50.928;4.440;2022-07-24T07:17:48;24.60;99.90
21246;DHT22;10781;50.928;4.440;2022-07-24T07:20:14;26.10;99.90
21246;DHT22;10781;50.928;4.440;2022-07-24T07:22:41;27.50;99.90
21246;DHT22;10781;50.928;4.440;2022-07-24T07:25:08;28.50;99.90
21246;DHT22;10781;50.928;4.440;2022-07-24T07:27:34;30.00;99.70
21246;DHT22;10781;50.928;4.440;2022-07-24T07:30:02;30.30;96.50
21246;DHT22;10781;50.928;4.440;2022-07-24T07:32:27;31.20;94.30
21246;DHT22;10781;50.928;4.440;2022-07-24T07:34:53;32.40;91.30
21246;DHT22;10781;50.928;4.440;2022-07-24T07:37:19;32.50;86.60
21246;DHT22;10781;50.928;4.440;2022-07-24T07:39:45;32.90;84.70
21246;DHT22;10781;50.928;4.440;2022-07-24T07:42:10;33.20;80.90
21246;DHT22;10781;50.928;4.440;2022-07-24T07:44:36;33.80;79.10
21246;DHT22;10781;50.928;4.440;2022-07-24T07:47:02;34.90;74.40
21246;DHT22;10781;50.928;4.440;2022-07-24T07:49:27;34.80;70.90
21246;DHT22;10781;50.928;4.440;2022-07-24T07:51:53;35.50;71.00
21246;DHT22;10781;50.928;4.440;2022-07-24T07:54:19;36.00;65.90
21246;DHT22;10781;50.928;4.440;2022-07-24T07:56:45;36.80;63.80
21246;DHT22;10781;50.928;4.440;2022-07-24T07:59:10;37.30;60.40
21246;DHT22;10781;50.928;4.440;2022-07-24T08:01:36;37.30;59.70
21246;DHT22;10781;50.928;4.440;2022-07-24T08:04:02;37.60;58.50
21246;DHT22;10781;50.928;4.440;2022-07-24T08:06:28;37.20;57.20
21246;DHT22;10781;50.928;4.440;2022-07-24T08:08:54;36.40;56.50
21246;DHT22;10781;50.928;4.440;2022-07-24T08:11:20;35.40;58.20
21246;DHT22;10781;50.928;4.440;2022-07-24T08:13:46;35.80;58.10
21246;DHT22;10781;50.928;4.440;2022-07-24T08:16:11;35.20;58.10
21246;DHT22;10781;50.928;4.440;2022-07-24T08:18:37;36.30;58.90
21246;DHT22;10781;50.928;4.440;2022-07-24T08:21:03;37.70;55.80
21246;DHT22;10781;50.928;4.440;2022-07-24T08:23:29;37.60;54.00
21246;DHT22;10781;50.928;4.440;2022-07-24T08:25:55;37.90;53.40
21246;DHT22;10781;50.928;4.440;2022-07-24T08:28:20;38.40;53.10
21246;DHT22;10781;50.928;4.440;2022-07-24T08:30:49;38.50;53.70
21246;DHT22;10781;50.928;4.440;2022-07-24T08:33:14;39.30;50.90
21246;DHT22;10781;50.928;4.440;2022-07-24T08:35:40;38.90;51.30
21246;DHT22;10781;50.928;4.440;2022-07-24T08:38:06;39.40;50.90
21246;DHT22;10781;50.928;4.440;2022-07-24T08:40:36;38.60;51.00
21246;DHT22;10781;50.928;4.440;2022-07-24T08:43:04;38.90;50.50
21246;DHT22;10781;50.928;4.440;2022-07-24T08:45:34;39.20;50.40
21246;DHT22;10781;50.928;4.440;2022-07-24T08:48:03;39.70;50.30
21246;DHT22;10781;50.928;4.440;2022-07-24T08:50:31;39.90;49.10
21246;DHT22;10781;50.928;4.440;2022-07-24T08:52:57;41.00;48.40
21246;DHT22;10781;50.928;4.440;2022-07-24T08:55:23;41.50;47.00
21246;DHT22;10781;50.928;4.440;2022-07-24T08:57:49;42.40;45.70
21246;DHT22;10781;50.928;4.440;2022-07-24T09:00:15;41.80;45.10
21246;DHT22;10781;50.928;4.440;2022-07-24T09:02:41;42.10;45.00
21246;DHT22;10781;50.928;4.440;2022-07-24T09:05:07;41.50;44.70
21246;DHT22;10781;50.928;4.440;2022-07-24T09:07:33;41.90;45.30
21246;DHT22;10781;50.928;4.440;2022-07-24T09:12:25;41.20;43.80
21246;DHT22;10781;50.928;4.440;2022-07-24T09:14:50;40.90;45.20
21246;DHT22;10781;50.928;4.440;2022-07-24T09:17:18;41.20;44.50
21246;DHT22;10781;50.928;4.440;2022-07-24T09:25:05;42.10;43.40
21246;DHT22;10781;50.928;4.440;2022-07-24T09:27:33;42.00;42.10
21246;DHT22;10781;50.928;4.440;2022-07-24T09:29:58;43.00;41.80
21246;DHT22;10781;50.928;4.440;2022-07-24T09:32:26;43.20;40.90
21246;DHT22;10781;50.928;4.440;2022-07-24T09:34:53;43.50;40.80
21246;DHT22;10781;50.928;4.440;2022-07-24T09:37:20;44.00;40.40
21246;DHT22;10781;50.928;4.440;2022-07-24T09:39:47;43.80;40.30
21246;DHT22;10781;50.928;4.440;2022-07-24T09:42:13;43.60;40.00
21246;DHT22;10781;50.928;4.440;2022-07-24T09:44:40;43.80;39.60
21246;DHT22;10781;50.928;4.440;2022-07-24T09:47:08;43.60;39.40
21246;DHT22;10781;50.928;4.440;2022-07-24T09:49:35;43.30;39.60
21246;DHT22;10781;50.928;4.440;2022-07-24T09:54:49;43.50;39.10
21246;DHT22;10781;50.928;4.440;2022-07-24T09:57:26;43.70;38.90
21246;DHT22;10781;50.928;4.440;2022-07-24T09:59:59;44.80;38.10
21246;DHT22;10781;50.928;4.440;2022-07-24T10:02:31;44.30;37.60
21246;DHT22;10781;50.928;4.440;2022-07-24T10:04:58;43.10;38.40
21246;DHT22;10781;50.928;4.440;2022-07-24T10:07:25;42.90;38.80
21246;DHT22;10781;50.928;4.440;2022-07-24T10:09:53;43.70;38.50
21246;DHT22;10781;50.928;4.440;2022-07-24T10:12:21;44.40;38.20
21246;DHT22;10781;50.928;4.440;2022-07-24T10:14:50;44.70;38.40
21246;DHT22;10781;50.928;4.440;2022-07-24T10:17:16;44.80;37.00
21246;DHT22;10781;50.928;4.440;2022-07-24T10:19:44;44.50;37.70
21246;DHT22;10781;50.928;4.440;2022-07-24T10:22:16;45.10;36.90
21246;DHT22;10781;50.928;4.440;2022-07-24T10:27:27;45.80;35.60
21246;DHT22;10781;50.928;4.440;2022-07-24T10:29:54;44.70;36.30
21246;DHT22;10781;50.928;4.440;2022-07-24T10:32:22;44.60;37.20
21246;DHT22;10781;50.928;4.440;2022-07-24T10:35:12;44.40;36.50
21246;DHT22;10781;50.928;4.440;2022-07-24T10:40:51;44.80;36.80
21246;DHT22;10781;50.928;4.440;2022-07-24T10:43:21;44.80;36.50
21246;DHT22;10781;50.928;4.440;2022-07-24T10:51:11;46.10;35.20
21246;DHT22;10781;50.928;4.440;2022-07-24T11:01:40;45.00;36.70
21246;DHT22;10781;50.928;4.440;2022-07-24T11:07:09;46.00;35.30
21246;DHT22;10781;50.928;4.440;2022-07-24T11:10:02;45.80;35.50
21246;DHT22;10781;50.928;4.440;2022-07-24T11:12:33;45.30;36.20
21246;DHT22;10781;50.928;4.440;2022-07-24T11:15:00;43.30;36.10
21246;DHT22;10781;50.928;4.440;2022-07-24T11:17:44;44.40;37.20
21246;DHT22;10781;50.928;4.440;2022-07-24T11:20:22;45.10;36.00
21246;DHT22;10781;50.928;4.440;2022-07-24T11:22:50;44.60;35.80
21246;DHT22;10781;50.928;4.440;2022-07-24T11:25:20;45.60;35.70
21246;DHT22;10781;50.928;4.440;2022-07-24T11:30:12;46.70;34.10
21246;DHT22;10781;50.928;4.440;2022-07-24T11:32:40;47.60;33.90
21246;DHT22;10781;50.928;4.440;2022-07-24T11:35:06;47.60;32.70
21246;DHT22;10781;50.928;4.440;2022-07-24T11:37:35;47.00;33.60
21246;DHT22;10781;50.928;4.440;2022-07-24T11:40:01;46.20;34.20
21246;DHT22;10781;50.928;4.440;2022-07-24T11:42:28;46.20;33.70
21246;DHT22;10781;50.928;4.440;2022-07-24T11:44:54;45.00;35.10
21246;DHT22;10781;50.928;4.440;2022-07-24T11:47:22;43.90;35.60
21246;DHT22;10781;50.928;4.440;2022-07-24T11:49:56;44.30;35.40
21246;DHT22;10781;50.928;4.440;2022-07-24T11:52:24;45.20;35.90
21246;DHT22;10781;50.928;4.440;2022-07-24T11:54:52;46.00;35.50
21246;DHT22;10781;50.928;4.440;2022-07-24T11:57:24;45.30;34.10
21246;DHT22;10781;50.928;4.440;2022-07-24T11:59:50;44.90;34.90
21246;DHT22;10781;50.928;4.440;2022-07-24T12:02:17;44.50;35.30
21246;DHT22;10781;50.928;4.440;2022-07-24T12:04:44;45.60;36.00
21246;DHT22;10781;50.928;4.440;2022-07-24T12:07:30;45.40;35.00
21246;DHT22;10781;50.928;4.440;2022-07-24T12:09:58;46.50;34.30
21246;DHT22;10781;50.928;4.440;2022-07-24T12:12:29;47.10;34.20
21246;DHT22;10781;50.928;4.440;2022-07-24T12:15:08;47.60;33.70
21246;DHT22;10781;50.928;4.440;2022-07-24T12:17:52;47.70;33.30
21246;DHT22;10781;50.928;4.440;2022-07-24T12:20:21;48.00;33.20
21246;DHT22;10781;50.928;4.440;2022-07-24T12:22:47;48.20;32.60
21246;DHT22;10781;50.928;4.440;2022-07-24T12:25:13;48.60;32.60
21246;DHT22;10781;50.928;4.440;2022-07-24T12:27:42;48.00;33.00
21246;DHT22;10781;50.928;4.440;2022-07-24T12:30:35;47.70;33.70
21246;DHT22;10781;50.928;4.440;2022-07-24T12:33:02;47.10;32.70
21246;DHT22;10781;50.928;4.440;2022-07-24T12:35:30;48.60;33.60
21246;DHT22;10781;50.928;4.440;2022-07-24T12:37:58;48.20;32.20
21246;DHT22;10781;50.928;4.440;2022-07-24T12:40:35;45.50;32.90
21246;DHT22;10781;50.928;4.440;2022-07-24T12:43:09;42.30;38.60
21246;DHT22;10781;50.928;4.440;2022-07-24T12:45:35;43.90;37.70
21246;DHT22;10781;50.928;4.440;2022-07-24T12:50:38;45.80;35.60
21246;DHT22;10781;50.928;4.440;2022-07-24T12:53:05;46.00;34.80
21246;DHT22;10781;50.928;4.440;2022-07-24T12:55:31;45.60;34.80
21246;DHT22;10781;50.928;4.440;2022-07-24T12:58:02;46.20;35.10
21246;DHT22;10781;50.928;4.440;2022-07-24T13:00:29;46.90;35.00
21246;DHT22;10781;50.928;4.440;2022-07-24T13:02:56;47.60;33.50
21246;DHT22;10781;50.928;4.440;2022-07-24T13:05:41;45.90;33.90
21246;DHT22;10781;50.928;4.440;2022-07-24T13:08:08;46.50;34.70
21246;DHT22;10781;50.928;4.440;2022-07-24T13:10:34;46.80;35.50
21246;DHT22;10781;50.928;4.440;2022-07-24T13:13:01;47.30;34.30
21246;DHT22;10781;50.928;4.440;2022-07-24T13:15:27;46.00;34.40
21246;DHT22;10781;50.928;4.440;2022-07-24T13:17:53;45.30;34.30
21246;DHT22;10781;50.928;4.440;2022-07-24T13:20:19;42.40;36.50
21246;DHT22;10781;50.928;4.440;2022-07-24T13:22:44;43.20;36.90
21246;DHT22;10781;50.928;4.440;2022-07-24T13:25:10;41.70;37.90
21246;DHT22;10781;50.928;4.440;2022-07-24T13:27:36;41.90;39.00
21246;DHT22;10781;50.928;4.440;2022-07-24T13:30:03;43.00;37.80
21246;DHT22;10781;50.928;4.440;2022-07-24T13:32:29;44.20;37.90
21246;DHT22;10781;50.928;4.440;2022-07-24T13:34:54;45.30;36.20
21246;DHT22;10781;50.928;4.440;2022-07-24T13:37:20;46.70;35.10
21246;DHT22;10781;50.928;4.440;2022-07-24T13:39:46;47.70;34.70
21246;DHT22;10781;50.928;4.440;2022-07-24T13:42:12;47.40;33.50
21246;DHT22;10781;50.928;4.440;2022-07-24T13:44:40;47.30;33.90
21246;DHT22;10781;50.928;4.440;2022-07-24T13:47:06;47.80;33.80
21246;DHT22;10781;50.928;4.440;2022-07-24T13:49:32;48.10;32.80
21246;DHT22;10781;50.928;4.440;2022-07-24T13:51:58;46.90;33.10
21246;DHT22;10781;50.928;4.440;2022-07-24T13:54:23;45.70;34.00
21246;DHT22;10781;50.928;4.440;2022-07-24T13:56:49;45.40;34.10
21246;DHT22;10781;50.928;4.440;2022-07-24T13:59:15;45.40;34.50
21246;DHT22;10781;50.928;4.440;2022-07-24T14:01:41;45.80;35.00
21246;DHT22;10781;50.928;4.440;2022-07-24T14:04:06;45.80;33.80
21246;DHT22;10781;50.928;4.440;2022-07-24T14:06:36;46.20;34.70
21246;DHT22;10781;50.928;4.440;2022-07-24T14:09:03;46.80;33.60
21246;DHT22;10781;50.928;4.440;2022-07-24T14:11:29;47.10;33.60
21246;DHT22;10781;50.928;4.440;2022-07-24T14:13:55;46.90;33.30
21246;DHT22;10781;50.928;4.440;2022-07-24T14:16:20;46.50;34.40
21246;DHT22;10781;50.928;4.440;2022-07-24T14:18:46;46.90;33.30
21246;DHT22;10781;50.928;4.440;2022-07-24T14:21:12;46.70;32.80
21246;DHT22;10781;50.928;4.440;2022-07-24T14:23:38;45.90;33.70
21246;DHT22;10781;50.928;4.440;2022-07-24T14:26:03;43.60;36.80
21246;DHT22;10781;50.928;4.440;2022-07-24T14:28:31;42.80;36.60
21246;DHT22;10781;50.928;4.440;2022-07-24T14:30:56;42.20;37.10
21246;DHT22;10781;50.928;4.440;2022-07-24T14:33:22;42.90;37.30
21246;DHT22;10781;50.928;4.440;2022-07-24T14:35:48;43.40;37.50
21246;DHT22;10781;50.928;4.440;2022-07-24T14:38:14;44.10;37.00
21246;DHT22;10781;50.928;4.440;2022-07-24T14:40:40;44.60;36.20
21246;DHT22;10781;50.928;4.440;2022-07-24T14:43:05;44.40;35.70
21246;DHT22;10781;50.928;4.440;2022-07-24T14:45:31;44.80;35.60
21246;DHT22;10781;50.928;4.440;2022-07-24T14:47:57;45.20;35.60
21246;DHT22;10781;50.928;4.440;2022-07-24T14:50:22;44.80;34.90
21246;DHT22;10781;50.928;4.440;2022-07-24T14:52:48;43.20;36.70
21246;DHT22;10781;50.928;4.440;2022-07-24T14:55:14;41.00;38.70
21246;DHT22;10781;50.928;4.440;2022-07-24T14:57:39;41.70;38.70
21246;DHT22;10781;50.928;4.440;2022-07-24T15:00:06;42.10;38.00
21246;DHT22;10781;50.928;4.440;2022-07-24T15:02:32;41.60;37.90
21246;DHT22;10781;50.928;4.440;2022-07-24T15:04:58;41.70;39.30
21246;DHT22;10781;50.928;4.440;2022-07-24T15:07:25;42.60;38.00
21246;DHT22;10781;50.928;4.440;2022-07-24T15:09:51;42.40;37.00
21246;DHT22;10781;50.928;4.440;2022-07-24T15:12:17;41.00;39.00
21246;DHT22;10781;50.928;4.440;2022-07-24T15:14:42;41.40;38.80
21246;DHT22;10781;50.928;4.440;2022-07-24T15:17:09;41.60;38.30
21246;DHT22;10781;50.928;4.440;2022-07-24T15:19:34;41.60;38.50
21246;DHT22;10781;50.928;4.440;2022-07-24T15:22:00;42.60;38.10
21246;DHT22;10781;50.928;4.440;2022-07-24T15:24:25;43.50;37.10
21246;DHT22;10781;50.928;4.440;2022-07-24T15:26:51;43.70;36.30
21246;DHT22;10781;50.928;4.440;2022-07-24T15:29:17;43.20;37.30
21246;DHT22;10781;50.928;4.440;2022-07-24T15:31:43;44.00;36.50
21246;DHT22;10781;50.928;4.440;2022-07-24T15:34:10;44.20;36.50
21246;DHT22;10781;50.928;4.440;2022-07-24T15:36:36;44.20;36.20
21246;DHT22;10781;50.928;4.440;2022-07-24T15:39:02;43.70;36.40
21246;DHT22;10781;50.928;4.440;2022-07-24T15:41:28;43.70;35.60
21246;DHT22;10781;50.928;4.440;2022-07-24T15:43:54;43.20;36.40
21246;DHT22;10781;50.928;4.440;2022-07-24T15:46:20;43.20;37.10
21246;DHT22;10781;50.928;4.440;2022-07-24T15:48:45;43.20;36.50
21246;DHT22;10781;50.928;4.440;2022-07-24T15:51:11;43.10;36.10
21246;DHT22;10781;50.928;4.440;2022-07-24T15:53:39;43.30;36.30
21246;DHT22;10781;50.928;4.440;2022-07-24T15:56:05;43.10;36.50
21246;DHT22;10781;50.928;4.440;2022-07-24T15:58:31;43.60;36.60
21246;DHT22;10781;50.928;4.440;2022-07-24T16:00:57;42.60;36.00
21246;DHT22;10781;50.928;4.440;2022-07-24T16:03:22;42.10;37.10
21246;DHT22;10781;50.928;4.440;2022-07-24T16:05:48;41.90;37.70